Time;durP1;ratioP1;P1;durP2;ratioP2;P2;SDS_P1;SDS_P2;PMS_P1;PMS_P2;Temp;Humidity;BMP_temperature;BMP_pressure;BME280_temperature;BME280_humidity;BME280_pressure;Samples;Min_cycle;Max_cycle;Signal;HPM_P1;HPM_P2
2022/02/22 00:01:26;;;;;;;1999.90;999.90;;;6.30;99.90;;;;;;5015997;28;20419;-76
2022/02/22 00:03:52;;;;;;;1999.90;999.90;;;6.40;99.90;;;;;;5013843;28;20169;-78
2022/02/22 00:06:17;;;;;;;1999.90;999.90;;;6.30;99.90;;;;;;5012704;28;20562;-79
2022/02/22 00:08:43;;;;;;;1999.90;999.90;;;6.30;99.90;;;;;;5013232;28;20408;-78
2022/02/22 00:11:08;;;;;;;1999.90;999.90;;;6.30;99.90;;;;;;5014381;28;20176;-77
2022/02/22 00:13:34;;;;;;;1999.90;999.90;;;6.20;99.90;;;;;;5013830;28;20585;-78
2022/02/22 00:16:00;;;;;;;1999.90;999.90;;;6.20;99.90;;;;;;5013976;28;20728;-78
2022/02/22 00:18:26;;;;;;;1999.90;999.90;;;6.20;99.90;;;;;;5014139;28;20161;-79
2022/02/22 00:20:51;;;;;;;1999.90;999.90;;;6.20;99.90;;;;;;5013730;28;20783;-78
2022/02/22 00:23:18;;;;;;;1999.90;999.90;;;6.20;99.90;;;;;;5013909;28;20184;-77
2022/02/22 00:25:43;;;;;;;1999.90;999.90;;;6.30;99.90;;;;;;5013810;28;20197;-79
2022/02/22 00:28:09;;;;;;;1999.90;999.90;;;6.30;99.90;;;;;;5013780;28;20458;-78
2022/02/22 00:30:34;;;;;;;1999.90;999.90;;;6.20;99.90;;;;;;5014014;28;20165;-77
2022/02/22 00:33:00;;;;;;;1999.90;999.90;;;6.30;99.90;;;;;;5014642;28;20696;-78
2022/02/22 00:35:25;;;;;;;1999.90;999.90;;;6.20;99.90;;;;;;5014206;28;20213;-76
2022/02/22 00:37:51;;;;;;;1999.90;999.90;;;6.30;99.90;;;;;;5014027;28;20169;-78
2022/02/22 00:40:17;;;;;;;1999.90;999.90;;;6.30;99.90;;;;;;5014270;28;20161;-76
2022/02/22 00:42:43;;;;;;;1999.90;999.90;;;6.20;99.90;;;;;;5014187;28;20161;-77
2022/02/22 00:45:10;;;;;;;1999.90;999.90;;;6.20;99.90;;;;;;5013443;28;20187;-77
2022/02/22 00:47:36;;;;;;;1999.90;999.90;;;6.10;99.90;;;;;;5013799;28;20455;-78
2022/02/22 00:50:02;;;;;;;1999.90;999.90;;;6.10;99.90;;;;;;5013619;28;20516;-77
2022/02/22 00:52:29;;;;;;;1999.90;999.90;;;6.10;99.90;;;;;;5013951;28;20550;-77
2022/02/22 00:54:55;;;;;;;1999.90;999.90;;;6.10;99.90;;;;;;5013651;28;20443;-78
2022/02/22 00:57:20;;;;;;;1999.90;999.90;;;6.00;99.90;;;;;;5014107;28;20435;-77
2022/02/22 00:59:46;;;;;;;1999.90;999.90;;;6.00;99.90;;;;;;5014135;28;20408;-77
2022/02/22 01:02:12;;;;;;;1999.90;999.90;;;6.00;99.90;;;;;;5013549;28;20412;-78
2022/02/22 01:04:37;;;;;;;1999.90;999.90;;;6.00;99.90;;;;;;5013332;28;20529;-78
2022/02/22 01:07:03;;;;;;;1999.90;999.90;;;6.00;99.90;;;;;;5013643;28;20205;-77
2022/02/22 01:09:29;;;;;;;1999.90;999.90;;;6.00;99.90;;;;;;5013875;28;20201;-78
2022/02/22 01:11:54;;;;;;;1999.90;999.90;;;6.00;99.90;;;;;;5014818;28;20220;-77
2022/02/22 01:14:20;;;;;;;1999.90;999.90;;;6.00;99.90;;;;;;5017036;28;20192;-77
2022/02/22 01:16:46;;;;;;;1999.90;999.90;;;5.90;99.90;;;;;;5017124;28;20189;-77
2022/02/22 01:19:11;;;;;;;1999.90;999.90;;;5.90;99.90;;;;;;5015960;28;20169;-77
2022/02/22 01:21:37;;;;;;;1999.90;999.90;;;5.90;99.90;;;;;;5016628;28;20209;-78
2022/02/22 01:24:04;;;;;;;1999.90;999.90;;;5.90;99.90;;;;;;5016588;28;20169;-78
2022/02/22 01:26:30;;;;;;;1999.90;999.90;;;5.80;99.90;;;;;;5016260;28;20212;-77
2022/02/22 01:28:58;;;;;;;1999.90;999.90;;;5.80;99.90;;;;;;5016910;28;20939;-78
2022/02/22 01:31:24;;;;;;;1999.90;999.90;;;5.80;99.90;;;;;;5016324;28;20898;-77
2022/02/22 01:33:54;;;;;;;1999.90;999.90;;;5.80;99.90;;;;;;5016521;28;20799;-77
2022/02/22 01:36:21;;;;;;;1999.90;999.90;;;5.80;99.90;;;;;;5016154;28;20432;-78
2022/02/22 01:38:47;;;;;;;1999.90;999.90;;;5.70;99.90;;;;;;5016204;28;20792;-77
2022/02/22 01:41:13;;;;;;;1999.90;999.90;;;5.70;99.90;;;;;;5016375;28;20407;-77
2022/02/22 01:43:41;;;;;;;1999.90;999.90;;;5.70;99.90;;;;;;5016380;28;20412;-77
2022/02/22 01:46:07;;;;;;;1999.90;999.90;;;5.70;99.90;;;;;;5015764;28;20197;-77
2022/02/22 01:48:33;;;;;;;1999.90;999.90;;;5.60;99.90;;;;;;5015887;28;20407;-77
2022/02/22 01:50:58;;;;;;;1999.90;999.90;;;5.60;99.90;;;;;;5016171;28;20252;-77
2022/02/22 01:53:24;;;;;;;1999.90;999.90;;;5.60;99.90;;;;;;5016657;28;20173;-77
2022/02/22 01:55:51;;;;;;;1999.90;999.90;;;5.70;99.90;;;;;;5015811;28;20196;-77
2022/02/22 01:58:17;;;;;;;1999.90;999.90;;;5.70;99.90;;;;;;5014377;28;20173;-77
2022/02/22 02:00:45;;;;;;;1999.90;999.90;;;5.60;99.90;;;;;;5014403;28;20701;-77
2022/02/22 02:03:13;;;;;;;1999.90;999.90;;;5.50;99.90;;;;;;5014211;28;20426;-77
2022/02/22 02:05:38;;;;;;;1999.90;999.90;;;5.50;99.90;;;;;;5013985;28;20977;-77
2022/02/22 02:08:04;;;;;;;1999.90;999.90;;;5.50;99.90;;;;;;5014342;28;20396;-77
2022/02/22 02:10:30;;;;;;;1999.90;999.90;;;5.50;99.90;;;;;;5014224;28;20169;-77
2022/02/22 02:12:55;;;;;;;1999.90;999.90;;;5.60;99.90;;;;;;5014235;28;20169;-77
2022/02/22 02:15:21;;;;;;;1999.90;999.90;;;5.50;99.90;;;;;;5013885;28;20618;-77
2022/02/22 02:17:46;;;;;;;1999.90;999.90;;;5.50;99.90;;;;;;5014021;28;20173;-77
2022/02/22 02:20:12;;;;;;;1999.90;999.90;;;5.50;99.90;;;;;;5014037;28;20248;-77
2022/02/22 02:22:38;;;;;;;1999.90;999.90;;;5.50;99.90;;;;;;5013914;28;20172;-77
2022/02/22 02:25:05;;;;;;;1999.90;999.90;;;5.50;99.90;;;;;;5013531;28;20249;-77
2022/02/22 02:27:32;;;;;;;1999.90;999.90;;;5.50;99.90;;;;;;5013757;28;20452;-77
2022/02/22 02:29:59;;;;;;;1999.90;999.90;;;5.40;99.90;;;;;;5013900;28;20410;-77
2022/02/22 02:32:26;;;;;;;1999.90;999.90;;;5.40;99.90;;;;;;5013785;28;20173;-77
2022/02/22 02:34:52;;;;;;;1999.90;999.90;;;5.30;99.90;;;;;;5013481;28;20412;-77
2022/02/22 02:37:18;;;;;;;1999.90;999.90;;;5.30;99.90;;;;;;5013706;28;20436;-77
2022/02/22 02:39:44;;;;;;;1999.90;999.90;;;5.30;99.90;;;;;;5013752;28;20434;-77
2022/02/22 02:42:09;;;;;;;1999.90;999.90;;;5.30;99.90;;;;;;5013660;28;20169;-77
2022/02/22 02:44:36;;;;;;;1999.90;999.90;;;5.20;99.90;;;;;;5013418;28;20400;-77
2022/02/22 02:47:02;;;;;;;1999.90;999.90;;;5.20;99.90;;;;;;5013379;28;20239;-77
2022/02/22 02:49:28;;;;;;;1999.90;999.90;;;5.20;99.90;;;;;;5013391;28;20431;-77
2022/02/22 02:51:53;;;;;;;1999.90;999.90;;;5.20;99.90;;;;;;5013547;28;20581;-77
2022/02/22 02:54:19;;;;;;;1999.90;999.90;;;5.20;99.90;;;;;;5013240;28;20169;-77
2022/02/22 02:56:44;;;;;;;1999.90;999.90;;;5.20;99.90;;;;;;5013244;28;20582;-77
2022/02/22 02:59:11;;;;;;;1999.90;999.90;;;5.10;99.90;;;;;;5013434;28;20545;-77
2022/02/22 03:01:38;;;;;;;1999.90;999.90;;;5.10;99.90;;;;;;5013391;28;20173;-77
2022/02/22 03:04:04;;;;;;;1999.90;999.90;;;5.10;99.90;;;;;;5013119;28;20404;-77
2022/02/22 03:06:51;;;;;;;1999.90;999.90;;;5.10;99.90;;;;;;5015543;23;20484;-77
2022/02/22 03:09:22;;;;;;;1999.90;999.90;;;5.00;99.90;;;;;;4993624;28;20852;-77
2022/02/22 03:12:08;;;;;;;1999.90;999.90;;;5.00;99.90;;;;;;4993587;28;20425;-77
2022/02/22 03:14:48;;;;;;;1999.90;999.90;;;4.90;99.90;;;;;;4993322;28;20190;-77
2022/02/22 03:17:16;;;;;;;1999.90;999.90;;;4.90;99.90;;;;;;5018932;23;20504;-77
2022/02/22 03:19:47;;;;;;;1999.90;999.90;;;4.90;99.90;;;;;;5012966;28;20415;-77
2022/02/22 03:22:12;;;;;;;1999.90;999.90;;;4.80;99.90;;;;;;5012980;28;20795;-77
2022/02/22 03:24:40;;;;;;;1999.90;999.90;;;5.00;99.90;;;;;;5012589;28;20431;-77
2022/02/22 03:27:05;;;;;;;1999.90;999.90;;;4.80;99.90;;;;;;5012762;28;20292;-77
2022/02/22 03:29:31;;;;;;;1999.90;999.90;;;4.80;99.90;;;;;;5012832;28;20499;-77
2022/02/22 03:31:57;;;;;;;1999.90;999.90;;;4.80;99.90;;;;;;5012838;28;20203;-77
2022/02/22 03:34:22;;;;;;;1999.90;999.90;;;4.80;99.90;;;;;;5012002;28;20175;-77
2022/02/22 03:36:48;;;;;;;1999.90;999.90;;;4.80;99.90;;;;;;5012699;28;20255;-77
2022/02/22 03:39:13;;;;;;;1999.90;999.90;;;4.90;99.90;;;;;;5012721;28;20223;-77
2022/02/22 03:41:39;;;;;;;1999.90;999.90;;;4.80;99.90;;;;;;5012853;28;20165;-77
2022/02/22 03:44:05;;;;;;;1999.90;999.90;;;4.80;99.90;;;;;;5012634;28;20183;-77
2022/02/22 03:46:42;;;;;;;1999.90;999.90;;;4.80;99.90;;;;;;5027944;23;20229;-77
2022/02/22 03:49:08;;;;;;;1999.90;999.90;;;4.80;99.90;;;;;;5012765;28;20169;-77
2022/02/22 03:52:03;;;;;;;1999.90;999.90;;;5.20;99.90;;;;;;5012606;28;20578;-78
2022/02/22 03:54:37;;;;;;;1999.90;999.90;;;4.70;99.90;;;;;;5012675;28;20181;-77
2022/02/22 03:57:36;;;;;;;1999.90;999.90;;;4.70;99.90;;;;;;5012672;28;20435;-77
2022/02/22 04:00:31;;;;;;;1999.90;999.90;;;4.70;99.90;;;;;;5012685;28;20247;-78
2022/02/22 04:06:26;;;;;;;1999.90;999.90;;;4.80;99.90;;;;;;5011972;28;20471;-77
2022/02/22 04:08:51;;;;;;;1999.90;999.90;;;4.80;99.90;;;;;;5012603;28;20536;-77
2022/02/22 04:11:23;;;;;;;1999.90;999.90;;;5.10;99.90;;;;;;5012643;28;20165;-77
2022/02/22 04:13:51;;;;;;;1999.90;999.90;;;4.70;99.90;;;;;;5012502;28;20165;-77
2022/02/22 04:16:17;;;;;;;1999.90;999.90;;;4.90;99.90;;;;;;5012048;28;20459;-77
2022/02/22 04:18:51;;;;;;;1999.90;999.90;;;5.10;99.90;;;;;;5012609;28;20169;-78
2022/02/22 04:21:17;;;;;;;1999.90;999.90;;;4.60;99.90;;;;;;5012497;28;20187;-77
2022/02/22 04:23:48;;;;;;;1999.90;999.90;;;4.50;99.90;;;;;;5012525;28;20454;-77
2022/02/22 04:26:16;;;;;;;1999.90;999.90;;;4.60;99.90;;;;;;5011970;28;20199;-77
2022/02/22 04:29:00;;;;;;;1999.90;999.90;;;4.60;99.90;;;;;;5012184;28;20407;-77
2022/02/22 04:31:40;;;;;;;1999.90;999.90;;;4.60;99.90;;;;;;5012177;28;20423;-77
2022/02/22 04:37:56;;;;;;;1999.90;999.90;;;4.50;99.90;;;;;;5044231;23;20538;-77
2022/02/22 04:40:26;;;;;;;1999.90;999.90;;;4.40;99.90;;;;;;5012091;28;20454;-77
2022/02/22 04:42:54;;;;;;;1999.90;999.90;;;4.40;99.90;;;;;;5012246;28;20515;-77
2022/02/22 04:45:20;;;;;;;1999.90;999.90;;;4.30;99.90;;;;;;5027207;23;20490;-77
2022/02/22 04:47:46;;;;;;;1999.90;999.90;;;4.40;99.90;;;;;;5014534;28;20676;-77
2022/02/22 04:50:12;;;;;;;1999.90;999.90;;;4.40;99.90;;;;;;5015967;28;20161;-77
2022/02/22 04:52:37;;;;;;;1999.90;999.90;;;4.40;99.90;;;;;;5016034;28;20513;-77
2022/02/22 04:55:06;;;;;;;1999.90;999.90;;;4.40;99.90;;;;;;5015451;28;20184;-77
2022/02/22 04:57:33;;;;;;;1999.90;999.90;;;4.40;99.90;;;;;;5015671;28;20222;-77
2022/02/22 04:59:59;;;;;;;1999.90;999.90;;;4.40;99.90;;;;;;5015676;28;20177;-76
2022/02/22 05:02:25;;;;;;;1999.90;999.90;;;4.40;99.90;;;;;;5015549;28;20658;-77
2022/02/22 05:04:50;;;;;;;1999.90;999.90;;;4.40;99.90;;;;;;5015284;28;20300;-77
2022/02/22 05:07:16;;;;;;;1999.90;999.90;;;4.40;99.90;;;;;;5030468;28;20204;-77
2022/02/22 05:09:41;;;;;;;1999.90;999.90;;;4.40;99.90;;;;;;5015358;28;20230;-77
2022/02/22 05:12:09;;;;;;;1999.90;999.90;;;4.30;99.90;;;;;;5015347;28;20157;-77
2022/02/22 05:14:35;;;;;;;1999.90;999.90;;;4.30;99.90;;;;;;5015133;28;20200;-77
2022/02/22 05:17:00;;;;;;;1999.90;999.90;;;4.30;99.90;;;;;;5015175;28;20205;-77
2022/02/22 05:19:26;;;;;;;1999.90;999.90;;;4.30;99.90;;;;;;5030483;28;20602;-77
2022/02/22 05:21:52;;;;;;;1999.90;999.90;;;4.40;99.90;;;;;;5015364;28;20183;-77
2022/02/22 05:24:17;;;;;;;1999.90;999.90;;;4.40;99.90;;;;;;5014942;28;20188;-77
2022/02/22 05:26:43;;;;;;;1999.90;999.90;;;4.50;99.90;;;;;;5015089;28;20200;-77
2022/02/22 05:29:09;;;;;;;1999.90;999.90;;;4.40;99.90;;;;;;5015162;28;20173;-77
2022/02/22 05:31:34;;;;;;;1999.90;999.90;;;4.40;99.90;;;;;;5015089;28;20177;-77
2022/02/22 05:34:00;;;;;;;1999.90;999.90;;;4.40;99.90;;;;;;5014827;28;20169;-77
2022/02/22 05:36:26;;;;;;;1999.90;999.90;;;4.40;99.90;;;;;;5015032;28;20185;-77
2022/02/22 05:38:51;;;;;;;1999.90;999.90;;;4.40;99.90;;;;;;5014937;28;20173;-77
2022/02/22 05:41:20;;;;;;;1999.90;999.90;;;4.40;99.90;;;;;;5014947;28;20403;-77
2022/02/22 05:43:47;;;;;;;1999.90;999.90;;;4.30;99.90;;;;;;5014818;28;20173;-77
2022/02/22 05:46:13;;;;;;;1999.90;999.90;;;4.40;99.90;;;;;;5014114;28;20851;-77
2022/02/22 05:48:39;;;;;;;1999.90;999.90;;;4.30;99.90;;;;;;5014723;28;20172;-77
2022/02/22 05:51:04;;;;;;;1999.90;999.90;;;4.30;99.90;;;;;;5029842;28;20176;-77
2022/02/22 05:53:30;;;;;;;1999.90;999.90;;;4.30;99.90;;;;;;5015210;28;20662;-77
2022/02/22 05:55:55;;;;;;;1999.90;999.90;;;4.30;99.90;;;;;;5166086;23;20213;-77
2022/02/22 05:58:21;;;;;;;1999.90;999.90;;;4.30;99.90;;;;;;5014090;28;20192;-77
2022/02/22 06:00:46;;;;;;;1999.90;999.90;;;4.30;99.90;;;;;;5014528;28;20177;-77
2022/02/22 06:03:12;;;;;;;1999.90;999.90;;;4.30;99.90;;;;;;5013210;28;20630;-77
2022/02/22 06:05:38;;;;;;;1999.90;999.90;;;4.30;99.90;;;;;;5014002;28;20189;-77
2022/02/22 06:08:03;;;;;;;1999.90;999.90;;;4.30;99.90;;;;;;5014378;28;20162;-77
2022/02/22 06:10:29;;;;;;;1999.90;999.90;;;4.30;99.90;;;;;;5014111;28;20165;-77
2022/02/22 06:12:55;;;;;;;1999.90;999.90;;;4.30;99.90;;;;;;5014248;28;20589;-77
2022/02/22 06:15:22;;;;;;;1999.90;999.90;;;4.30;99.90;;;;;;5013821;28;20656;-77
2022/02/22 06:17:48;;;;;;;1999.90;999.90;;;4.30;99.90;;;;;;5014161;28;20180;-77
2022/02/22 06:20:13;;;;;;;1999.90;999.90;;;4.30;99.90;;;;;;5014033;28;20542;-77
2022/02/22 06:22:40;;;;;;;1999.90;999.90;;;4.30;99.90;;;;;;5014054;28;20169;-77
2022/02/22 06:25:08;;;;;;;1999.90;999.90;;;4.30;99.90;;;;;;5013729;28;20542;-77
2022/02/22 06:27:47;;;;;;;1999.90;999.90;;;4.30;99.90;;;;;;5013797;28;20255;-77
2022/02/22 06:30:13;;;;;;;1999.90;999.90;;;4.30;99.90;;;;;;5013940;28;20200;-77
2022/02/22 06:32:39;;;;;;;1999.90;999.90;;;4.30;99.90;;;;;;5013849;28;20197;-77
2022/02/22 06:35:05;;;;;;;1999.90;999.90;;;4.30;99.90;;;;;;5013455;28;20165;-77
2022/02/22 06:37:31;;;;;;;1999.90;999.90;;;4.30;99.90;;;;;;5013752;28;20418;-77
2022/02/22 06:39:58;;;;;;;1999.90;999.90;;;4.30;99.90;;;;;;5013771;28;20571;-77
2022/02/22 06:42:24;;;;;;;1999.90;999.90;;;4.30;99.90;;;;;;5013745;28;20541;-77
2022/02/22 06:44:49;;;;;;;1999.90;999.90;;;4.30;99.90;;;;;;5013420;28;20181;-77
2022/02/22 06:47:15;;;;;;;1999.90;999.90;;;4.30;99.90;;;;;;5013487;28;20212;-77
2022/02/22 06:49:41;;;;;;;1999.90;999.90;;;4.30;99.90;;;;;;5013580;28;20173;-77
2022/02/22 06:52:07;;;;;;;1999.90;999.90;;;4.20;99.90;;;;;;5013571;28;20161;-77
2022/02/22 06:54:32;;;;;;;1999.90;999.90;;;4.20;99.90;;;;;;5013201;28;20608;-77
2022/02/22 06:56:58;;;;;;;1999.90;999.90;;;4.30;99.90;;;;;;5013185;28;20440;-77
2022/02/22 06:59:24;;;;;;;1999.90;999.90;;;4.20;99.90;;;;;;5013378;28;20184;-77
2022/02/22 07:01:49;;;;;;;1999.90;999.90;;;4.30;99.90;;;;;;5013367;28;20197;-77
2022/02/22 07:04:15;;;;;;;1999.90;999.90;;;4.30;99.90;;;;;;5012987;28;20703;-77
2022/02/22 07:06:40;;;;;;;1999.90;999.90;;;4.40;99.90;;;;;;5013055;28;20563;-77
2022/02/22 07:09:06;;;;;;;1999.90;999.90;;;4.40;99.90;;;;;;5012438;28;20165;-77
2022/02/22 07:11:32;;;;;;;1999.90;999.90;;;4.50;99.90;;;;;;5013087;28;20372;-77
2022/02/22 07:13:57;;;;;;;1999.90;999.90;;;4.60;99.90;;;;;;5013026;28;20219;-77
2022/02/22 07:16:24;;;;;;;1999.90;999.90;;;4.70;99.90;;;;;;5012879;28;20436;-77
2022/02/22 07:18:49;;;;;;;1999.90;999.90;;;4.80;99.90;;;;;;5013049;28;20639;-77
2022/02/22 07:21:15;;;;;;;1999.90;999.90;;;4.90;99.90;;;;;;5013085;28;20415;-77
2022/02/22 07:23:41;;;;;;;1999.90;999.90;;;5.10;99.90;;;;;;5013002;28;20172;-77
2022/02/22 07:26:06;;;;;;;1999.90;999.90;;;5.20;99.90;;;;;;5012470;28;20193;-77
2022/02/22 07:28:32;;;;;;;1999.90;999.90;;;5.20;99.90;;;;;;5012850;28;20205;-77
2022/02/22 07:30:57;;;;;;;1999.90;999.90;;;5.30;99.90;;;;;;5012896;28;20168;-77
2022/02/22 07:33:23;;;;;;;1999.90;999.90;;;5.30;99.90;;;;;;5012759;28;20252;-77
2022/02/22 07:35:49;;;;;;;1999.90;999.90;;;5.30;99.90;;;;;;5012295;28;20685;-77
2022/02/22 07:38:14;;;;;;;1999.90;999.90;;;5.30;99.90;;;;;;5012768;28;20165;-77
2022/02/22 07:40:41;;;;;;;1999.90;999.90;;;5.30;99.90;;;;;;5012596;28;20169;-77
2022/02/22 07:43:06;;;;;;;1999.90;999.90;;;5.40;99.90;;;;;;5012664;28;20161;-77
2022/02/22 07:45:32;;;;;;;1999.90;999.90;;;5.40;99.90;;;;;;5012248;28;20435;-77
2022/02/22 07:48:00;;;;;;;1999.90;999.90;;;5.50;99.90;;;;;;5012491;28;20538;-77
2022/02/22 07:50:26;;;;;;;1999.90;999.90;;;5.60;99.90;;;;;;5012531;28;20157;-77
2022/02/22 07:52:51;;;;;;;1999.90;999.90;;;5.60;99.90;;;;;;5012463;28;20466;-77
2022/02/22 07:55:17;;;;;;;1999.90;999.90;;;5.70;99.90;;;;;;5012112;28;20173;-77
2022/02/22 07:57:43;;;;;;;1999.90;999.90;;;5.80;99.90;;;;;;5012794;28;20294;-77
2022/02/22 08:00:10;;;;;;;1999.90;999.90;;;5.80;99.90;;;;;;5012403;28;20161;-77
2022/02/22 08:02:36;;;;;;;1999.90;999.90;;;5.90;99.90;;;;;;5012388;28;20766;-77
2022/02/22 08:05:01;;;;;;;1999.90;999.90;;;6.00;99.90;;;;;;5011947;28;20411;-77
2022/02/22 08:07:27;;;;;;;1999.90;999.90;;;6.00;99.90;;;;;;5012270;28;20451;-77
2022/02/22 08:09:52;;;;;;;1999.90;999.90;;;6.10;99.90;;;;;;5012220;28;20244;-77
2022/02/22 08:12:18;;;;;;;1999.90;999.90;;;6.20;99.90;;;;;;5012275;28;20631;-77
2022/02/22 08:14:44;;;;;;;1999.90;999.90;;;6.30;99.90;;;;;;5011945;28;20162;-77
2022/02/22 08:17:09;;;;;;;1999.90;999.90;;;6.30;99.90;;;;;;5012139;28;20192;-77
2022/02/22 08:19:35;;;;;;;1999.90;999.90;;;6.40;99.90;;;;;;5012176;28;20234;-77
2022/02/22 08:22:01;;;;;;;1999.90;999.90;;;6.50;99.90;;;;;;5015341;28;20173;-77
2022/02/22 08:24:26;;;;;;;1999.90;999.90;;;6.50;99.90;;;;;;5015996;28;20561;-77
2022/02/22 08:26:55;;;;;;;1999.90;999.90;;;6.60;99.90;;;;;;5016076;28;20284;-77
2022/02/22 08:29:24;;;;;;;1999.90;999.90;;;6.70;99.90;;;;;;5016215;28;20251;-77
2022/02/22 08:31:50;;;;;;;1999.90;999.90;;;6.80;99.90;;;;;;5016154;28;20885;-77
2022/02/22 08:34:17;;;;;;;1999.90;999.90;;;6.90;99.90;;;;;;5015786;28;20396;-77
2022/02/22 08:36:43;;;;;;;1999.90;999.90;;;6.80;99.90;;;;;;5015889;28;20458;-77
2022/02/22 08:39:09;;;;;;;1999.90;999.90;;;6.80;99.90;;;;;;5016021;28;20411;-77
2022/02/22 08:41:34;;;;;;;1999.90;999.90;;;6.90;99.90;;;;;;5015952;28;20408;-77
2022/02/22 08:44:04;;;;;;;1999.90;999.90;;;7.00;99.90;;;;;;5015677;28;20205;-77
2022/02/22 08:46:30;;;;;;;1999.90;999.90;;;7.00;99.90;;;;;;5015681;28;20250;-76
2022/02/22 08:48:55;;;;;;;1999.90;999.90;;;7.20;99.90;;;;;;5015871;28;20902;-77
2022/02/22 08:51:21;;;;;;;1999.90;999.90;;;7.30;99.90;;;;;;5015733;28;20204;-76
2022/02/22 08:53:46;;;;;;;1999.90;999.90;;;7.30;99.90;;;;;;5015680;28;20169;-77
2022/02/22 08:56:13;;;;;;;1999.90;999.90;;;7.40;99.90;;;;;;5015355;28;20592;-77
2022/02/22 08:58:39;;;;;;;1999.90;999.90;;;7.30;99.90;;;;;;5015683;28;20169;-77
2022/02/22 09:01:05;;;;;;;1999.90;999.90;;;7.40;99.90;;;;;;5015666;28;20490;-77
2022/02/22 09:03:31;;;;;;;1999.90;999.90;;;7.50;99.90;;;;;;5015716;28;20510;-77
2022/02/22 09:05:59;;;;;;;1999.90;999.90;;;7.50;99.90;;;;;;5015028;28;20459;-77
2022/02/22 09:08:25;;;;;;;1999.90;999.90;;;7.60;99.90;;;;;;5015443;28;20404;-77
2022/02/22 09:10:51;;;;;;;1999.90;999.90;;;7.60;99.90;;;;;;5015394;28;20910;-77
2022/02/22 09:13:17;;;;;;;1999.90;999.90;;;7.60;99.90;;;;;;5015444;28;20435;-77
2022/02/22 09:15:43;;;;;;;1999.90;999.90;;;7.70;99.90;;;;;;5014980;28;20197;-77
2022/02/22 09:18:09;;;;;;;1999.90;999.90;;;7.70;99.90;;;;;;5015358;28;20439;-76
2022/02/22 09:20:35;;;;;;;1999.90;999.90;;;7.70;99.90;;;;;;5015238;28;20418;-77
2022/02/22 09:23:01;;;;;;;1999.90;999.90;;;7.80;99.90;;;;;;5015176;28;20396;-77
2022/02/22 09:25:32;;;;;;;1999.90;999.90;;;7.90;99.90;;;;;;5014930;28;20761;-77
2022/02/22 09:27:59;;;;;;;1999.90;999.90;;;8.00;99.90;;;;;;5015183;28;20196;-77
2022/02/22 09:30:24;;;;;;;1999.90;999.90;;;8.10;99.90;;;;;;5014988;28;20411;-77
2022/02/22 09:32:50;;;;;;;1999.90;999.90;;;8.10;99.90;;;;;;5014151;28;20404;-77
2022/02/22 09:35:19;;;;;;;1999.90;999.90;;;8.20;99.90;;;;;;5014636;28;20168;-77
2022/02/22 09:37:45;;;;;;;1999.90;999.90;;;8.30;99.90;;;;;;5014861;28;20165;-76
2022/02/22 09:40:13;;;;;;;1999.90;999.90;;;8.30;99.90;;;;;;5014947;28;20419;-77
2022/02/22 09:42:40;;;;;;;1999.90;999.90;;;8.40;99.90;;;;;;5014964;28;20956;-77
2022/02/22 09:45:07;;;;;;;1999.90;999.90;;;8.60;99.90;;;;;;5014342;28;20510;-76
2022/02/22 09:47:34;;;;;;;1999.90;999.90;;;8.60;99.90;;;;;;5014743;28;20953;-76
2022/02/22 09:49:59;;;;;;;1999.90;999.90;;;8.70;99.90;;;;;;5014743;28;20404;-76
2022/02/22 09:52:25;;;;;;;1999.90;999.90;;;8.70;99.90;;;;;;5014770;28;20418;-77
2022/02/22 09:54:51;;;;;;;1999.90;999.90;;;8.80;99.90;;;;;;5014464;28;20161;-77
2022/02/22 09:57:16;;;;;;;1999.90;999.90;;;9.00;99.90;;;;;;5010051;28;20224;-77
2022/02/22 09:59:43;;;;;;;1999.90;999.90;;;9.10;99.90;;;;;;5013660;28;20179;-77
2022/02/22 10:02:08;;;;;;;1999.90;999.90;;;9.20;99.90;;;;;;5005099;28;20169;-76
2022/02/22 10:04:42;;;;;;;1999.90;999.90;;;9.40;99.90;;;;;;4993430;28;20924;-76
2022/02/22 10:35:37;;;;;;;1999.90;999.90;;;9.70;99.90;;;;;;4827600;23;20534;-76
2022/02/22 10:38:16;;;;;;;1999.90;999.90;;;9.70;99.90;;;;;;5013114;28;20401;-76
2022/02/22 10:40:53;;;;;;;1999.90;999.90;;;9.70;99.90;;;;;;5012466;28;20399;-76
2022/02/22 10:43:27;;;;;;;1999.90;999.90;;;9.50;99.90;;;;;;5013266;28;20493;-76
2022/02/22 10:45:59;;;;;;;1999.90;999.90;;;9.40;99.90;;;;;;5012790;28;20432;-76
2022/02/22 10:48:37;;;;;;;1999.90;999.90;;;9.30;99.90;;;;;;5012165;28;20480;-76
2022/02/22 10:51:06;;;;;;;1999.90;999.90;;;9.30;99.90;;;;;;5013116;28;20407;-75
2022/02/22 10:53:37;;;;;;;1999.90;999.90;;;9.20;99.90;;;;;;5013104;28;20466;-75
2022/02/22 10:56:05;;;;;;;1999.90;999.90;;;9.20;99.90;;;;;;5012329;28;20477;-75
2022/02/22 10:58:31;;;;;;;1999.90;999.90;;;9.20;99.90;;;;;;5012621;28;20400;-75
2022/02/22 11:00:57;;;;;;;1999.90;999.90;;;9.20;99.90;;;;;;5012490;28;20455;-75
2022/02/22 11:03:22;;;;;;;1999.90;999.90;;;9.30;99.90;;;;;;5012605;28;20163;-75
2022/02/22 11:06:39;;;;;;;1999.90;999.90;;;9.30;99.90;;;;;;5027777;23;20238;-75
2022/02/22 11:16:25;;;;;;;1999.90;999.90;;;9.10;99.90;;;;;;5007568;28;20938;-75
2022/02/22 11:18:55;;;;;;;1999.90;999.90;;;9.50;99.90;;;;;;5011813;28;20914;-75
2022/02/22 11:21:24;;;;;;;1999.90;999.90;;;9.10;99.90;;;;;;5012324;28;20413;-75
2022/02/22 11:24:01;;;;;;;1999.90;999.90;;;9.10;99.90;;;;;;5012638;28;20409;-75
2022/02/22 11:26:27;;;;;;;1999.90;999.90;;;9.10;99.90;;;;;;5011968;28;20824;-76
2022/02/22 11:28:57;;;;;;;1999.90;999.90;;;9.10;99.90;;;;;;5012403;28;20409;-76
2022/02/22 11:31:30;;;;;;;1999.90;999.90;;;9.20;99.90;;;;;;5012453;28;20162;-76
2022/02/22 11:34:00;;;;;;;1999.90;999.90;;;9.30;99.90;;;;;;5011820;28;20867;-76
2022/02/22 11:36:31;;;;;;;1999.90;999.90;;;9.30;99.90;;;;;;5012302;28;20427;-76
2022/02/22 11:38:58;;;;;;;1999.90;999.90;;;9.30;99.90;;;;;;5012253;28;20423;-76
2022/02/22 11:41:27;;;;;;;1999.90;999.90;;;9.40;99.90;;;;;;5011649;28;20418;-76
2022/02/22 11:44:04;;;;;;;1999.90;999.90;;;9.40;99.90;;;;;;5012036;28;20426;-76
2022/02/22 11:46:42;;;;;;;1999.90;999.90;;;9.50;99.90;;;;;;5063639;23;20487;-75
2022/02/22 11:49:29;;;;;;;1999.90;999.90;;;9.60;99.90;;;;;;5011938;28;20778;-76
2022/02/22 11:52:08;;;;;;;1999.90;999.90;;;9.80;99.90;;;;;;5012163;28;20393;-76
2022/02/22 11:54:34;;;;;;;1999.90;999.90;;;10.00;99.90;;;;;;5052330;23;20493;-72
2022/02/22 11:57:04;;;;;;;1999.90;999.90;;;10.10;99.90;;;;;;5011266;28;20922;-72
2022/02/22 11:59:43;;;;;;;1999.90;999.90;;;10.00;99.90;;;;;;5011736;28;20417;-72
2022/02/22 12:02:09;;;;;;;1999.90;999.90;;;10.00;99.90;;;;;;5011571;28;20396;-72
2022/02/22 12:04:35;;;;;;;1999.90;999.90;;;10.10;99.90;;;;;;5011603;28;20476;-72
2022/02/22 12:07:01;;;;;;;1999.90;999.90;;;10.10;99.90;;;;;;5011436;28;20652;-72
2022/02/22 12:09:38;;;;;;;1999.90;999.90;;;9.90;99.90;;;;;;5011442;28;20638;-72
2022/02/22 12:12:06;;;;;;;1999.90;999.90;;;10.00;99.90;;;;;;5027047;28;20418;-72
2022/02/22 12:14:32;;;;;;;1999.90;999.90;;;9.90;99.90;;;;;;5011393;28;20800;-72
2022/02/22 12:16:58;;;;;;;1999.90;999.90;;;9.80;99.90;;;;;;5011053;28;20463;-72
2022/02/22 12:19:24;;;;;;;1999.90;999.90;;;9.80;99.90;;;;;;5011970;28;20168;-72
2022/02/22 12:21:51;;;;;;;1999.90;999.90;;;9.70;99.90;;;;;;5011635;28;20204;-72
2022/02/22 12:24:21;;;;;;;1999.90;999.90;;;9.70;99.90;;;;;;5011062;28;20664;-72
2022/02/22 12:26:46;;;;;;;1999.90;999.90;;;9.50;99.90;;;;;;5011490;28;20566;-72
2022/02/22 12:29:12;;;;;;;1999.90;999.90;;;9.60;99.90;;;;;;5011649;28;20487;-72
2022/02/22 12:31:43;;;;;;;1999.90;999.90;;;9.50;99.90;;;;;;5011440;28;20172;-73
2022/02/22 12:34:20;;;;;;;1999.90;999.90;;;9.50;99.90;;;;;;5027004;23;20228;-73
2022/02/22 12:36:52;;;;;;;1999.90;999.90;;;9.30;99.90;;;;;;5012329;28;20738;-73
2022/02/22 12:39:29;;;;;;;1999.90;999.90;;;9.10;99.90;;;;;;5013207;28;20776;-72
2022/02/22 12:42:34;;;;;;;1999.90;999.90;;;9.10;99.90;;;;;;5011863;28;20415;-73
2022/02/22 12:45:02;;;;;;;1999.90;999.90;;;8.80;99.90;;;;;;4990903;28;20459;-73
2022/02/22 12:47:34;;;;;;;1999.90;999.90;;;8.60;99.90;;;;;;4991278;28;20561;-73
2022/02/22 12:50:01;;;;;;;1999.90;999.90;;;8.80;99.90;;;;;;4992170;28;20404;-73
2022/02/22 12:52:29;;;;;;;1999.90;999.90;;;8.60;99.90;;;;;;4991958;28;20404;-73
2022/02/22 12:55:17;;;;;;;1999.90;999.90;;;8.60;99.90;;;;;;4991347;28;20405;-73